Time;durP1;ratioP1;P1;durP2;ratioP2;P2;SDS_P1;SDS_P2;PMS_P1;PMS_P2;Temp;Humidity;BMP_temperature;BMP_pressure;BME280_temperature;BME280_humidity;BME280_pressure;Samples;Min_cycle;Max_cycle;Signal;HPM_P1;HPM_P2
2022/06/17 00:00:44;;;;;;;5.38;4.40;;;;;;;20.72;51.56;95417.00;6209080;23;20301;-82
2022/06/17 00:03:09;;;;;;;9.55;4.57;;;;;;;21.40;51.72;95526.13;6209659;23;20028;-83
2022/06/17 00:05:35;;;;;;;10.73;4.50;;;;;;;20.88;51.80;95454.91;6209779;23;20016;-83
2022/06/17 00:08:00;;;;;;;10.40;4.32;;;;;;;21.03;51.89;95478.56;6209603;23;20429;-82
2022/06/17 00:10:26;;;;;;;9.90;4.35;;;;;;;21.34;51.81;95513.19;6211617;23;20004;-83
2022/06/17 00:12:52;;;;;;;7.68;4.20;;;;;;;20.98;51.85;95473.38;6212125;23;20005;-82
2022/06/17 00:15:19;;;;;;;7.45;4.40;;;;;;;21.00;51.62;95480.00;6208972;23;20074;-82
2022/06/17 00:17:57;;;;;;;7.05;4.18;;;;;;;19.11;51.79;95188.06;6209849;23;20012;-82
2022/06/17 00:20:24;;;;;;;7.30;4.72;;;;;;;21.20;52.16;95528.88;6209863;23;20068;-82
2022/06/17 00:22:50;;;;;;;5.07;3.92;;;;;;;21.13;52.30;95530.16;6211597;23;20008;-83
2022/06/17 00:25:34;;;;;;;7.20;4.45;;;;;;;21.00;52.10;95514.25;6210846;23;20012;-83
2022/06/17 00:27:59;;;;;;;10.35;4.07;;;;;;;20.86;52.21;95484.88;6209936;23;20016;-83
2022/06/17 00:30:29;;;;;;;9.55;4.28;;;;;;;21.13;52.24;95526.69;6208887;23;20035;-83
2022/06/17 00:32:57;;;;;;;13.00;4.88;;;;;;;21.07;52.18;95531.47;6211747;23;20008;-83
2022/06/17 00:35:25;;;;;;;7.60;4.30;;;;;;;20.95;52.19;95523.34;6211298;23;20394;-83
2022/06/17 00:37:50;;;;;;;10.07;4.97;;;;;;;21.00;52.23;95525.84;6209161;23;20013;-83
2022/06/17 00:40:22;;;;;;;8.82;5.38;;;;;;;20.89;52.76;95531.97;6209019;23;20091;-84
2022/06/17 00:42:48;;;;;;;8.68;5.15;;;;;;;20.25;52.21;95421.81;6209807;23;20440;-83
2022/06/17 00:45:14;;;;;;;8.52;4.68;;;;;;;20.79;52.33;95515.06;6209170;23;20130;-83
2022/06/17 00:47:55;;;;;;;6.95;4.03;;;;;;;20.47;52.18;95443.06;6211522;23;20411;-84
2022/06/17 00:50:27;;;;;;;11.32;5.13;;;;;;;20.95;52.05;95517.94;6211062;23;20011;-83
2022/06/17 00:53:14;;;;;;;8.68;4.70;;;;;;;20.88;51.97;95522.31;6211479;23;20085;-83
2022/06/17 00:55:45;;;;;;;12.18;4.80;;;;;;;20.74;52.51;95504.50;6211411;23;20432;-84
2022/06/17 00:58:23;;;;;;;10.15;5.07;;;;;;;20.94;52.09;95518.28;6211596;23;20024;-84
2022/06/17 01:00:53;;;;;;;15.70;4.70;;;;;;;20.99;51.81;95510.78;6209151;23;20020;-83
2022/06/17 01:03:30;;;;;;;11.73;4.55;;;;;;;20.34;52.12;95422.56;6209263;23;20008;-83
2022/06/17 01:06:04;;;;;;;10.50;4.13;;;;;;;20.96;52.39;95532.22;6209360;23;20531;-83
2022/06/17 01:11:21;;;;;;;9.55;4.13;;;;;;;20.79;52.47;95520.47;6211461;23;20073;-84
2022/06/17 01:13:49;;;;;;;8.27;4.43;;;;;;;19.91;52.47;95371.72;6210561;23;20016;-84
2022/06/17 01:16:16;;;;;;;6.97;4.47;;;;;;;19.60;52.22;95319.06;6234396;23;20405;-83
2022/06/17 01:18:44;;;;;;;9.02;4.43;;;;;;;20.90;52.18;95512.78;6211476;23;20008;-83
2022/06/17 01:21:19;;;;;;;7.85;4.60;;;;;;;20.42;52.23;95445.97;6210835;23;20018;-83
2022/06/17 01:23:46;;;;;;;6.80;4.85;;;;;;;20.35;52.54;95445.69;6209242;23;20095;-83
2022/06/17 01:26:11;;;;;;;10.25;4.90;;;;;;;20.65;52.62;95484.91;6209356;23;20016;-83
2022/06/17 01:28:37;;;;;;;14.35;5.25;;;;;;;20.19;52.79;95423.13;6209445;23;20399;-83
2022/06/17 01:31:07;;;;;;;9.35;5.10;;;;;;;20.54;53.37;95486.41;6208659;23;20020;-83
2022/06/17 01:33:38;;;;;;;8.57;5.00;;;;;;;20.64;53.33;95502.19;6209615;23;20012;-83
2022/06/17 01:36:03;;;;;;;;;;;;;;;20.64;53.25;95494.13;6211799;23;20080;-83
2022/06/17 01:38:31;;;;;;;4.72;4.10;;;;;;;20.51;52.97;95486.31;6209908;23;20361;-83
2022/06/17 01:40:59;;;;;;;9.10;4.40;;;;;;;19.79;52.93;95367.03;6211648;23;20458;-83
2022/06/17 01:43:31;;;;;;;7.68;4.15;;;;;;;19.83;52.96;95384.13;6209188;23;20000;-83
2022/06/17 01:46:10;;;;;;;8.20;4.45;;;;;;;20.53;52.77;95487.53;6210965;23;20009;-83
2022/06/17 01:48:38;;;;;;;7.90;4.38;;;;;;;20.11;53.00;95442.81;6211945;23;20005;-83
2022/06/17 01:51:06;;;;;;;5.22;3.92;;;;;;;19.88;53.20;95402.75;6211115;23;20035;-83
2022/06/17 01:53:34;;;;;;;9.05;4.35;;;;;;;20.23;52.85;95453.66;6210577;23;20080;-83
2022/06/17 01:56:12;;;;;;;9.18;4.88;;;;;;;19.97;52.99;95421.53;6208559;23;20016;-83
2022/06/17 01:58:43;;;;;;;9.50;4.40;;;;;;;20.15;53.02;95435.66;6208432;23;20009;-83
2022/06/17 02:01:09;;;;;;;6.85;4.47;;;;;;;20.02;52.75;95407.88;6209142;23;20371;-83
2022/06/17 02:03:49;;;;;;;8.50;4.50;;;;;;;20.41;53.19;95490.97;6210484;23;20311;-83
2022/06/17 02:06:21;;;;;;;7.80;4.28;;;;;;;20.42;53.17;95486.38;6210509;23;20039;-83
2022/06/17 02:08:46;;;;;;;8.30;4.95;;;;;;;20.04;53.01;95425.28;6209120;23;20015;-83
2022/06/17 02:11:12;;;;;;;11.88;4.45;;;;;;;20.38;53.14;95499.69;6208880;23;20447;-83
2022/06/17 02:13:39;;;;;;;9.45;4.82;;;;;;;19.68;53.95;95424.25;6208447;23;20012;-83
2022/06/17 02:16:07;;;;;;;10.60;4.68;;;;;;;20.30;53.82;95505.09;6208822;23;20023;-83
2022/06/17 02:18:33;;;;;;;10.93;4.72;;;;;;;19.63;54.07;95442.13;6210530;23;20005;-83
2022/06/17 02:21:05;;;;;;;8.27;4.10;;;;;;;19.96;54.37;95487.25;6210782;23;20008;-83
2022/06/17 02:23:32;;;;;;;11.85;4.50;;;;;;;19.85;54.37;95483.34;6208373;23;20012;-83
2022/06/17 02:26:00;;;;;;;7.25;4.60;;;;;;;19.73;54.83;95472.50;6209401;23;20120;-83
2022/06/17 02:28:29;;;;;;;11.90;5.15;;;;;;;19.73;55.08;95473.28;6209245;23;20043;-83
2022/06/17 02:30:56;;;;;;;10.77;4.75;;;;;;;19.50;55.61;95451.22;6208854;23;20091;-83
2022/06/17 02:33:23;;;;;;;9.18;4.70;;;;;;;19.37;55.41;95424.53;6210133;23;20048;-83
2022/06/17 02:35:56;;;;;;;12.85;4.90;;;;;;;19.78;56.18;95510.75;6208785;23;20012;-83
2022/06/17 02:38:25;;;;;;;18.65;5.60;;;;;;;19.54;56.82;95505.94;6209426;23;20009;-83
2022/06/17 02:41:00;;;;;;;9.43;4.80;;;;;;;19.03;57.33;95428.88;6209244;23;20039;-83
2022/06/17 02:43:29;;;;;;;7.00;4.85;;;;;;;19.19;57.41;95451.47;6208681;23;20094;-83
2022/06/17 02:46:02;;;;;;;10.27;5.38;;;;;;;19.02;57.83;95446.13;6208669;23;20016;-83
2022/06/17 02:48:32;;;;;;;8.57;5.32;;;;;;;18.86;57.71;95426.25;6210722;23;20367;-83
2022/06/17 02:51:01;;;;;;;11.85;5.68;;;;;;;18.81;58.38;95424.53;6212525;23;20442;-83
2022/06/17 02:53:31;;;;;;;14.05;5.15;;;;;;;19.38;58.00;95510.22;6210663;23;20451;-83
2022/06/17 02:55:57;;;;;;;10.32;5.32;;;;;;;19.40;58.27;95507.22;6212670;23;20044;-83
2022/06/17 02:58:41;;;;;;;16.13;5.05;;;;;;;19.32;58.08;95500.75;6210121;23;20024;-83
2022/06/17 03:01:19;;;;;;;12.25;5.18;;;;;;;19.10;58.35;95476.78;6210520;23;20012;-83
2022/06/17 03:03:46;;;;;;;12.50;6.25;;;;;;;18.77;58.29;95428.94;6210877;23;20005;-83
2022/06/17 03:06:25;;;;;;;17.05;6.75;;;;;;;18.85;58.08;95408.53;6209909;23;20162;-83
2022/06/17 03:08:52;;;;;;;20.17;6.50;;;;;;;19.11;58.09;95463.03;6213058;23;20068;-83
2022/06/17 03:11:19;;;;;;;18.95;6.93;;;;;;;19.14;58.18;95464.28;6212685;23;20031;-83
2022/06/17 03:14:01;;;;;;;14.85;6.07;;;;;;;18.93;58.87;95466.84;6211697;23;20013;-83
2022/06/17 03:16:27;;;;;;;15.60;6.38;;;;;;;19.07;59.13;95488.94;6211739;23;20015;-83
2022/06/17 03:18:53;;;;;;;14.48;6.53;;;;;;;18.69;59.06;95415.53;6210309;23;20436;-83
2022/06/17 03:21:23;;;;;;;15.55;6.18;;;;;;;19.26;59.05;95508.22;6212221;23;20009;-83
2022/06/17 03:24:01;;;;;;;17.85;6.15;;;;;;;18.70;59.22;95415.19;6210765;23;20009;-83
2022/06/17 03:26:33;;;;;;;21.48;6.85;;;;;;;18.94;59.49;95463.06;6209507;23;20117;-83
2022/06/17 03:29:03;;;;;;;10.45;5.95;;;;;;;19.07;59.08;95488.94;6211903;23;20083;-83
2022/06/17 03:31:41;;;;;;;20.67;6.38;;;;;;;19.16;59.07;95513.13;6210837;23;20019;-83
2022/06/17 03:34:21;;;;;;;7.20;5.72;;;;;;;18.83;60.04;95527.09;6210550;23;20013;-83
2022/06/17 03:37:08;;;;;;;12.98;5.50;;;;;;;18.50;58.94;95427.38;6209358;23;20083;-83
2022/06/17 03:39:41;;;;;;;14.18;5.95;;;;;;;19.09;58.79;95518.22;6211831;23;20419;-83
2022/06/17 03:42:14;;;;;;;19.10;6.40;;;;;;;18.94;58.79;95481.06;6210165;23;20406;-83
2022/06/17 03:45:06;;;;;;;22.02;6.05;;;;;;;19.21;58.64;95529.13;6210133;23;20013;-83
2022/06/17 03:47:51;;;;;;;11.30;5.65;;;;;;;19.22;58.26;95530.69;6205246;23;20015;-83
2022/06/17 03:50:27;;;;;;;15.05;5.47;;;;;;;19.30;58.74;95545.25;6213893;23;20028;-83
2022/06/17 03:52:57;;;;;;;12.43;6.45;;;;;;;17.48;58.49;95251.03;6211182;23;20008;-83
2022/06/17 03:55:23;;;;;;;14.02;7.10;;;;;;;17.51;58.41;95237.78;6213372;23;20012;-84
2022/06/17 03:57:52;;;;;;;14.85;7.70;;;;;;;15.75;58.18;95001.69;6209943;23;20028;-83
2022/06/17 04:00:34;;;;;;;16.33;8.20;;;;;;;19.48;58.63;95542.19;6211394;23;20717;-83
2022/06/17 04:03:02;;;;;;;21.00;7.32;;;;;;;19.18;59.02;95509.03;6210053;23;20014;-84
2022/06/17 04:05:29;;;;;;;17.77;7.13;;;;;;;19.17;58.01;95483.25;6212962;23;20075;-83
2022/06/17 04:07:54;;;;;;;11.10;7.07;;;;;;;19.27;58.25;95493.66;6211429;23;20404;-83
2022/06/17 04:10:24;;;;;;;16.83;7.32;;;;;;;18.95;58.08;95443.13;6235508;23;20000;-84
2022/06/17 04:12:52;;;;;;;18.45;6.75;;;;;;;19.30;58.19;95489.53;6209858;23;20094;-83
2022/06/17 04:15:28;;;;;;;19.58;7.25;;;;;;;19.26;57.96;95494.78;6211845;23;20016;-83
2022/06/17 04:17:54;;;;;;;15.00;7.32;;;;;;;18.97;58.00;95449.00;6208555;23;20009;-83
2022/06/17 04:20:37;;;;;;;21.50;7.18;;;;;;;19.61;58.49;95553.88;6210054;23;20016;-83
2022/06/17 04:23:17;;;;;;;20.13;7.60;;;;;;;19.44;57.99;95503.59;6210297;23;20004;-83
2022/06/17 04:25:58;;;;;;;20.10;7.63;;;;;;;19.67;57.00;95555.28;6210044;23;20084;-83
2022/06/17 04:28:29;;;;;;;26.67;7.88;;;;;;;19.31;56.49;95491.13;6207986;23;20088;-83
2022/06/17 04:31:01;;;;;;;17.00;6.80;;;;;;;19.33;56.39;95491.59;6207427;23;20521;-83
2022/06/17 04:33:50;;;;;;;13.35;7.28;;;;;;;19.22;56.73;95455.41;6206617;23;20055;-84
2022/06/17 04:36:26;;;;;;;20.02;7.03;;;;;;;19.91;56.42;95550.13;6206774;23;20563;-83
2022/06/17 04:39:00;;;;;;;16.83;7.03;;;;;;;19.84;56.68;95549.84;6205702;23;20020;-84
2022/06/17 04:41:31;;;;;;;15.57;7.03;;;;;;;19.61;56.52;95500.06;6205279;23;20017;-84
2022/06/17 04:43:58;;;;;;;17.50;6.22;;;;;;;19.93;56.68;95549.81;6204911;23;20048;-84
2022/06/17 04:46:35;;;;;;;15.90;7.45;;;;;;;19.38;56.59;95456.44;6204215;23;20016;-84
2022/06/17 04:49:01;;;;;;;17.27;6.18;;;;;;;19.34;56.62;95458.22;6206397;23;20040;-84
2022/06/17 04:51:29;;;;;;;22.90;6.55;;;;;;;19.44;56.37;95462.47;6207260;23;20294;-84
2022/06/17 04:53:56;;;;;;;12.77;5.82;;;;;;;19.82;55.75;95519.00;6207606;23;20311;-85
2022/06/17 04:56:32;;;;;;;9.90;5.80;;;;;;;19.47;55.56;95468.00;6206673;23;20016;-84
2022/06/17 04:58:58;;;;;;;8.38;5.40;;;;;;;19.43;56.08;95468.94;6205523;23;20004;-84
2022/06/17 05:01:31;;;;;;;11.93;5.47;;;;;;;20.03;55.54;95582.53;6180881;23;20028;-83
2022/06/17 05:04:01;;;;;;;16.20;6.10;;;;;;;17.68;55.51;95210.22;6197469;23;20013;-84
2022/06/17 05:06:27;;;;;;;12.90;5.68;;;;;;;18.35;55.11;95284.75;6179188;23;20018;-83
2022/06/17 05:09:04;;;;;;;16.13;6.40;;;;;;;16.95;54.93;95086.75;6203023;23;20012;-84
2022/06/17 05:11:43;;;;;;;10.27;5.30;;;;;;;17.82;55.25;95196.63;6203720;23;20459;-84
2022/06/17 05:14:24;;;;;;;14.50;6.25;;;;;;;19.40;54.85;95440.00;6206918;23;20371;-83
2022/06/17 05:16:49;;;;;;;12.27;6.05;;;;;;;19.83;55.04;95518.69;6202073;23;20013;-84
2022/06/17 05:19:15;;;;;;;13.93;6.25;;;;;;;19.91;54.76;95509.75;6203653;23;20066;-84
2022/06/17 05:21:40;;;;;;;14.00;6.20;;;;;;;20.07;54.64;95528.81;6223717;23;20012;-84
2022/06/17 05:24:09;;;;;;;13.25;6.53;;;;;;;18.24;54.68;95248.63;6196570;23;20470;-83
2022/06/17 05:26:35;;;;;;;18.20;6.55;;;;;;;19.93;54.93;95512.91;6199866;23;20008;-83
2022/06/17 05:29:01;;;;;;;13.02;6.13;;;;;;;18.80;55.10;95353.06;6200940;23;20019;-84
2022/06/17 05:31:27;;;;;;;16.77;6.40;;;;;;;20.06;54.86;95513.03;6201206;23;20394;-84
2022/06/17 05:33:53;;;;;;;12.40;6.05;;;;;;;20.03;54.91;95493.69;6201363;23;20013;-84
2022/06/17 05:36:18;;;;;;;13.77;5.85;;;;;;;19.99;55.23;95471.22;6193916;23;20371;-83
2022/06/17 05:38:44;;;;;;;16.33;5.72;;;;;;;20.04;54.13;95491.81;6199852;23;20088;-82
2022/06/17 05:41:15;;;;;;;13.30;5.72;;;;;;;20.03;53.94;95469.47;6202051;23;20048;-83
2022/06/17 05:43:41;;;;;;;14.65;5.95;;;;;;;20.50;53.46;95530.53;6202065;23;20440;-83
2022/06/17 05:46:07;;;;;;;16.05;6.07;;;;;;;19.64;54.39;95399.88;6202567;23;20009;-83
2022/06/17 05:48:32;;;;;;;16.13;6.60;;;;;;;19.91;54.08;95457.84;6199893;23;20020;-83
2022/06/17 05:50:58;;;;;;;9.75;5.75;;;;;;;20.46;53.68;95511.50;6198933;23;20039;-83
2022/06/17 05:53:23;;;;;;;15.27;6.78;;;;;;;20.57;53.03;95512.72;6199457;23;20039;-84
2022/06/17 05:55:50;;;;;;;17.73;6.50;;;;;;;20.60;53.02;95522.81;6199584;23;20290;-83
2022/06/17 05:58:17;;;;;;;13.60;6.75;;;;;;;20.23;53.05;95464.44;6198662;23;20028;-83
2022/06/17 06:00:43;;;;;;;14.00;5.55;;;;;;;20.48;52.98;95500.41;6199621;23;20090;-83
2022/06/17 06:03:17;;;;;;;17.63;6.40;;;;;;;20.00;53.63;95437.03;6199993;23;20008;-83
2022/06/17 06:05:43;;;;;;;11.80;5.38;;;;;;;20.61;53.49;95502.84;6196451;23;20039;-84
2022/06/17 06:08:09;;;;;;;15.98;5.65;;;;;;;20.39;53.00;95446.59;6195792;23;20027;-83
2022/06/17 06:10:36;;;;;;;12.60;5.10;;;;;;;20.83;53.22;95523.28;6195085;23;20035;-83
2022/06/17 06:13:05;;;;;;;11.82;6.05;;;;;;;20.77;53.30;95494.94;6197532;23;20072;-83
2022/06/17 06:15:40;;;;;;;11.60;5.38;;;;;;;21.09;52.57;95515.75;6196869;23;20100;-83
2022/06/17 06:18:08;;;;;;;11.95;4.65;;;;;;;20.89;52.27;95478.06;6199533;23;20015;-83
2022/06/17 06:20:34;;;;;;;8.63;5.45;;;;;;;20.94;52.77;95516.38;6196063;23;20009;-83
2022/06/17 06:22:59;;;;;;;12.20;4.93;;;;;;;20.20;51.89;95405.84;6195045;23;20005;-83
2022/06/17 06:25:25;;;;;;;10.07;5.30;;;;;;;20.89;52.70;95507.72;6196592;23;20395;-82
2022/06/17 06:27:50;;;;;;;17.80;5.28;;;;;;;20.57;52.15;95421.09;6220354;23;20419;-82
2022/06/17 06:30:23;;;;;;;15.73;5.85;;;;;;;21.22;51.90;95516.59;6197410;23;20004;-82
2022/06/17 06:32:50;;;;;;;12.98;5.88;;;;;;;21.20;52.14;95521.56;6193675;23;20012;-84
2022/06/17 06:35:17;;;;;;;12.27;5.38;;;;;;;20.41;52.25;95445.16;6200028;23;20016;-82
2022/06/17 06:37:42;;;;;;;7.60;5.05;;;;;;;20.55;52.43;95441.41;6199547;23;20802;-83
2022/06/17 06:40:09;;;;;;;13.00;5.57;;;;;;;20.90;52.26;95448.06;6200630;23;20123;-82
2022/06/17 06:42:35;;;;;;;10.88;4.60;;;;;;;21.16;52.08;95494.47;6199214;23;20355;-82
2022/06/17 06:45:00;;;;;;;18.65;4.93;;;;;;;21.00;51.26;95452.25;6198900;23;20019;-83
2022/06/17 06:47:26;;;;;;;8.68;4.50;;;;;;;20.88;51.46;95427.94;6202855;23;20435;-83
2022/06/17 06:49:51;;;;;;;15.13;4.95;;;;;;;21.16;51.86;95453.19;6202661;23;20016;-82
2022/06/17 06:52:17;;;;;;;14.45;4.70;;;;;;;21.41;51.82;95472.94;6202091;23;20707;-83
2022/06/17 06:54:42;;;;;;;12.40;4.45;;;;;;;21.55;51.91;95493.09;6199204;23;20040;-82
2022/06/17 06:57:09;;;;;;;10.40;4.35;;;;;;;21.41;51.82;95491.84;6198651;23;20020;-82
2022/06/17 06:59:38;;;;;;;10.18;3.90;;;;;;;21.42;50.36;95486.09;6201158;23;20009;-83
2022/06/17 07:02:04;;;;;;;8.18;4.05;;;;;;;19.35;49.31;95131.72;6199767;23;20013;-83
2022/06/17 07:04:29;;;;;;;8.70;4.00;;;;;;;21.25;49.67;95426.94;6201612;23;20009;-83
2022/06/17 07:06:54;;;;;;;13.73;4.38;;;;;;;21.31;50.49;95446.38;6202281;23;20012;-83
2022/06/17 07:09:22;;;;;;;15.18;4.97;;;;;;;20.11;49.46;95275.91;6201472;23;20373;-83
2022/06/17 07:11:49;;;;;;;7.93;5.05;;;;;;;21.64;49.40;95497.59;6203451;23;20013;-84
2022/06/17 07:14:15;;;;;;;9.75;4.35;;;;;;;19.03;48.77;95106.38;6204895;23;20016;-85
2022/06/17 07:16:40;;;;;;;9.02;4.40;;;;;;;19.15;48.70;95071.47;6179874;23;20019;-85
2022/06/17 07:19:07;;;;;;;15.75;5.43;;;;;;;20.39;49.68;95318.09;6206928;23;20021;-86
2022/06/17 07:21:34;;;;;;;13.23;5.97;;;;;;;21.66;49.63;95504.25;6202441;23;20008;-84
2022/06/17 07:23:59;;;;;;;8.27;5.43;;;;;;;21.63;49.37;95458.25;6175765;23;20015;-84
2022/06/17 07:26:26;;;;;;;11.35;5.20;;;;;;;21.93;49.12;95495.47;6201168;23;20004;-85
2022/06/17 07:28:53;;;;;;;9.20;4.97;;;;;;;21.90;50.42;95489.97;6201315;23;20013;-83
2022/06/17 07:31:21;;;;;;;10.02;5.30;;;;;;;21.61;50.25;95455.88;6195180;23;20020;-83
2022/06/17 07:33:47;;;;;;;8.82;5.43;;;;;;;20.97;50.10;95350.47;6196014;23;20030;-82
2022/06/17 07:41:44;;;;;;;14.05;5.63;;;;;;;21.94;50.53;95469.28;6202847;23;20035;-84
2022/06/17 07:44:09;;;;;;;11.57;5.40;;;;;;;21.74;50.12;95506.03;6202300;23;20000;-84
2022/06/17 07:46:35;;;;;;;11.90;5.90;;;;;;;21.57;50.43;95498.16;6197550;23;20012;-84
2022/06/17 07:49:00;;;;;;;12.77;5.75;;;;;;;21.57;51.17;95487.38;6199742;23;20016;-83
2022/06/17 07:51:27;;;;;;;10.77;6.30;;;;;;;21.05;50.31;95371.94;6191531;23;20253;-84
2022/06/17 07:53:53;;;;;;;9.82;6.10;;;;;;;21.76;50.03;95465.22;6193484;23;20012;-82
2022/06/17 07:56:20;;;;;;;13.20;6.68;;;;;;;21.91;50.77;95476.13;6197535;23;20623;-83
2022/06/17 07:58:46;;;;;;;10.25;6.15;;;;;;;21.17;50.36;95336.13;6196509;23;20005;-81
2022/06/17 08:01:13;;;;;;;10.13;5.95;;;;;;;22.14;50.39;95483.78;6193308;23;20114;-81
2022/06/17 08:03:40;;;;;;;16.70;6.70;;;;;;;21.91;50.35;95419.41;6193838;23;20823;-84
2022/06/17 08:06:06;;;;;;;13.57;6.32;;;;;;;22.20;50.15;95439.25;6198608;23;20146;-82
2022/06/17 08:08:33;;;;;;;10.13;6.25;;;;;;;22.27;51.49;95453.75;6196917;23;20008;-83
2022/06/17 08:11:03;;;;;;;14.10;6.55;;;;;;;22.24;51.43;95453.63;6223107;23;20019;-84
2022/06/17 08:13:31;;;;;;;11.90;6.70;;;;;;;22.17;50.81;95427.19;6197534;23;20019;-82
2022/06/17 08:16:05;;;;;;;14.20;7.30;;;;;;;22.32;50.81;95467.00;6199540;23;20485;-84
2022/06/17 08:18:35;;;;;;;15.45;7.50;;;;;;;22.44;50.69;95458.06;6199257;23;20012;-82
2022/06/17 08:21:00;;;;;;;13.75;7.50;;;;;;;22.27;50.79;95404.31;6198235;23;20083;-83
2022/06/17 08:23:26;;;;;;;19.42;8.30;;;;;;;22.36;51.44;95410.34;6199855;23;20456;-83
2022/06/17 08:25:51;;;;;;;20.90;7.53;;;;;;;22.43;50.87;95397.03;6199696;23;20602;-84
2022/06/17 08:28:19;;;;;;;18.50;6.82;;;;;;;22.53;50.93;95428.22;6199919;23;20016;-83
2022/06/17 08:30:47;;;;;;;14.52;6.38;;;;;;;22.49;49.84;95413.81;6194775;23;20009;-83
2022/06/17 08:33:13;;;;;;;14.35;6.97;;;;;;;21.97;49.44;95328.19;6194955;23;20277;-83
2022/06/17 08:35:43;;;;;;;23.60;7.88;;;;;;;22.07;50.13;95362.84;6199520;23;20439;-83
2022/06/17 08:38:30;;;;;;;20.40;8.18;;;;;;;22.45;49.94;95407.50;6199373;23;20111;-83
2022/06/17 08:40:59;;;;;;;18.60;7.88;;;;;;;22.82;50.70;95438.72;6197021;23;20019;-83
2022/06/17 08:43:51;;;;;;;20.90;8.00;;;;;;;22.61;50.54;95440.81;6196108;23;20188;-83
2022/06/17 08:46:25;;;;;;;;;;;;;;;22.62;50.48;95439.69;6166831;23;20087;-83
2022/06/17 08:49:15;;;;;;;16.65;7.78;;;;;;;22.47;50.74;95440.41;6198181;23;19920;-83
2022/06/17 08:51:47;;;;;;;13.25;7.25;;;;;;;22.55;51.43;95437.56;6195721;23;20191;-83
2022/06/17 08:54:21;;;;;;;18.38;8.10;;;;;;;22.47;51.00;95413.38;6199630;23;20042;-83
2022/06/17 08:57:03;;;;;;;25.35;7.60;;;;;;;22.26;50.89;95384.63;6197598;23;20025;-83
2022/06/17 09:00:11;;;;;;;15.18;7.88;;;;;;;22.41;50.98;95403.94;6219685;23;20171;-83
2022/06/17 09:02:44;;;;;;;19.27;8.07;;;;;;;22.23;50.79;95381.81;6159542;23;20415;-83
2022/06/17 09:05:40;;;;;;;15.00;8.02;;;;;;;22.11;50.46;95371.06;6187992;23;20360;-82
2022/06/17 09:08:24;;;;;;;17.77;8.07;;;;;;;22.56;50.54;95433.72;6195126;23;20499;-82
2022/06/17 09:11:18;;;;;;;16.27;7.75;;;;;;;22.73;49.63;95434.56;6200109;23;20051;-83
2022/06/17 09:13:49;;;;;;;13.32;7.60;;;;;;;22.93;49.53;95439.00;6197151;23;20517;-83
2022/06/17 09:16:30;;;;;;;14.93;7.95;;;;;;;23.04;49.80;95431.94;6196001;23;20288;-82
2022/06/17 09:19:00;;;;;;;14.10;7.27;;;;;;;22.76;49.33;95369.81;6196664;23;20827;-83
2022/06/17 09:21:46;;;;;;;14.40;8.55;;;;;;;23.08;49.73;95411.22;6196345;23;20286;-83
2022/06/17 09:24:18;;;;;;;15.95;8.40;;;;;;;22.93;49.19;95406.56;6195164;23;20062;-82
2022/06/17 09:26:50;;;;;;;14.88;9.18;;;;;;;23.14;49.21;95433.38;6193712;23;20027;-82
2022/06/17 09:29:38;;;;;;;16.65;8.45;;;;;;;22.94;49.40;95390.00;6195932;23;20632;-82
2022/06/17 09:32:42;;;;;;;16.98;8.45;;;;;;;23.33;48.63;95433.50;6199970;23;20012;-83
2022/06/17 09:35:13;;;;;;;16.13;7.68;;;;;;;22.47;49.16;95305.28;6184021;23;20044;-82
2022/06/17 09:37:51;;;;;;;13.95;7.70;;;;;;;23.06;47.93;95365.56;6199862;23;20012;-83
2022/06/17 09:40:41;;;;;;;20.50;8.30;;;;;;;23.45;48.01;95420.66;6196508;23;20016;-83
2022/06/17 09:43:12;;;;;;;22.55;9.63;;;;;;;23.32;48.98;95354.25;6201309;23;20174;-84
2022/06/17 09:45:56;;;;;;;10.32;7.95;;;;;;;24.07;47.67;95364.09;6199773;23;20494;-84
2022/06/17 09:48:42;;;;;;;15.07;7.47;;;;;;;25.70;46.04;95413.34;6197887;23;20123;-84
2022/06/17 09:51:19;;;;;;;12.80;7.80;;;;;;;26.02;43.46;95281.44;6200003;23;20009;-84
2022/06/17 09:53:51;;;;;;;19.80;8.38;;;;;;;27.84;40.14;95412.81;6198791;23;20498;-82
2022/06/17 09:56:25;;;;;;;13.10;7.15;;;;;;;28.75;38.04;95395.47;6199034;23;20012;-85
2022/06/17 09:58:51;;;;;;;8.32;5.07;;;;;;;29.10;32.19;95413.09;6206379;23;20375;-84
2022/06/17 10:01:19;;;;;;;9.68;6.38;;;;;;;29.33;33.44;95388.16;6199119;23;20027;-83
2022/06/17 10:03:44;;;;;;;13.45;5.90;;;;;;;29.48;32.78;95324.19;6202358;23;20329;-83
2022/06/17 10:06:19;;;;;;;9.20;6.13;;;;;;;30.36;32.61;95412.78;6201336;23;20012;-83
2022/06/17 10:09:01;;;;;;;13.52;6.90;;;;;;;30.61;32.00;95351.31;6197312;23;20092;-83
2022/06/17 10:12:02;;;;;;;13.15;5.75;;;;;;;31.58;29.96;95400.88;6197626;23;20114;-84
2022/06/17 10:15:09;;;;;;;13.25;6.43;;;;;;;31.63;30.40;95390.28;6198216;23;20103;-84
2022/06/17 10:20:40;;;;;;;11.02;5.70;;;;;;;29.88;32.77;95407.75;6201189;23;20371;-83
2022/06/17 10:23:30;;;;;;;12.20;6.07;;;;;;;30.38;32.74;95404.94;6198166;23;20336;-83
2022/06/17 10:26:15;;;;;;;13.40;6.82;;;;;;;30.72;32.62;95406.03;6196673;23;20074;-84
2022/06/17 10:29:15;;;;;;;15.45;5.63;;;;;;;31.17;31.51;95398.78;6198468;23;20016;-84
2022/06/17 10:31:44;;;;;;;11.50;5.80;;;;;;;30.81;31.03;95386.44;6197510;23;20055;-84
2022/06/17 10:34:22;;;;;;;11.38;5.40;;;;;;;30.74;28.56;95373.56;6193324;23;20023;-83
2022/06/17 10:36:52;;;;;;;9.93;5.13;;;;;;;30.58;27.76;95362.31;6194444;23;20458;-83
2022/06/17 10:39:19;;;;;;;7.53;4.63;;;;;;;31.01;26.87;95380.06;6198293;23;20004;-85
2022/06/17 10:41:46;;;;;;;12.68;5.30;;;;;;;30.64;27.44;95380.66;6202255;23;20008;-83
2022/06/17 10:44:14;;;;;;;8.48;4.80;;;;;;;30.53;27.01;95338.06;6199161;23;20078;-83
2022/06/17 10:46:48;;;;;;;10.63;4.63;;;;;;;30.45;27.14;95388.50;6198590;23;20017;-82
2022/06/17 10:49:34;;;;;;;13.25;5.25;;;;;;;30.89;27.23;95396.97;6226215;23;20016;-83
2022/06/17 10:52:03;;;;;;;15.85;5.70;;;;;;;30.73;28.39;95344.63;6200150;23;20017;-83
2022/06/17 10:54:34;;;;;;;8.77;4.95;;;;;;;31.00;27.64;95392.19;6200709;23;20013;-83
2022/06/17 10:57:11;;;;;;;9.02;5.30;;;;;;;30.52;27.78;95386.53;6201332;23;20082;-83
2022/06/17 10:59:41;;;;;;;7.78;4.85;;;;;;;30.44;27.40;95316.56;6194415;23;20031;-84
2022/06/17 11:02:21;;;;;;;9.60;4.95;;;;;;;31.20;27.48;95389.78;6197531;23;20087;-83
2022/06/17 11:04:54;;;;;;;12.32;5.00;;;;;;;30.96;27.29;95407.88;6196592;23;20125;-84
2022/06/17 11:07:27;;;;;;;10.52;5.15;;;;;;;31.00;28.06;95392.19;6198974;23;20012;-84
2022/06/17 11:09:57;;;;;;;5.43;4.70;;;;;;;30.76;29.09;95367.69;6203111;23;20405;-84
2022/06/17 11:12:28;;;;;;;13.45;6.40;;;;;;;29.84;32.67;95292.13;6202496;23;20012;-84
2022/06/17 11:15:00;;;;;;;17.75;6.32;;;;;;;29.80;33.05;95381.56;6202051;23;20019;-83
2022/06/17 11:17:40;;;;;;;12.48;6.97;;;;;;;29.30;33.67;95372.53;6200739;23;20426;-83
2022/06/17 11:20:20;;;;;;;11.00;7.18;;;;;;;28.76;35.22;95349.84;6203040;23;20018;-83
2022/06/17 11:23:21;;;;;;;14.85;7.45;;;;;;;28.29;35.47;95402.63;6202090;23;20015;-84
2022/06/17 11:25:47;;;;;;;7.88;6.80;;;;;;;27.27;37.74;95366.00;6195578;23;20517;-84
2022/06/17 11:28:32;;;;;;;13.93;7.47;;;;;;;27.54;38.10;95393.13;6202494;23;20031;-84
2022/06/17 11:31:03;;;;;;;13.45;7.95;;;;;;;27.00;38.51;95356.41;6203134;23;20012;-84
2022/06/17 11:33:32;;;;;;;;;;;;;;;26.99;38.60;95386.72;6203292;23;20016;-84
2022/06/17 11:36:04;;;;;;;13.35;8.45;;;;;;;26.28;39.16;95294.22;6201653;23;19965;-84
2022/06/17 11:38:32;;;;;;;11.07;7.75;;;;;;;26.79;39.17;95386.09;6201331;23;20043;-85
2022/06/17 11:41:00;;;;;;;17.00;7.78;;;;;;;26.39;38.79;95316.88;6202274;23;20017;-83
2022/06/17 11:43:38;;;;;;;15.60;8.75;;;;;;;25.29;39.60;95182.28;6199608;23;20009;-83
2022/06/17 11:46:09;;;;;;;10.55;7.40;;;;;;;26.46;39.70;95374.06;6198057;23;20013;-84
2022/06/17 11:48:40;;;;;;;16.30;7.68;;;;;;;26.24;39.54;95330.63;6201346;23;20027;-83
2022/06/17 11:51:14;;;;;;;;;;;;;;;26.50;39.45;95371.38;6201980;23;20529;-83
2022/06/17 11:53:51;;;;;;;21.48;8.43;;;;;;;26.59;39.32;95374.59;6206678;23;19995;-83
2022/06/17 11:56:35;;;;;;;13.45;6.68;;;;;;;26.39;37.82;95365.81;6200948;23;20009;-83
2022/06/17 11:59:26;;;;;;;15.60;6.72;;;;;;;26.34;38.40;95362.63;6203059;23;20016;-83
2022/06/17 12:01:55;;;;;;;13.80;5.80;;;;;;;26.22;37.04;95360.91;6201800;23;20309;-83